EDSB/FKB METAR and TAF weather

Enter ICAO airport designator
Station Type Date Time Source
EDSB METAR 2022/12/08 11:50 UTC NOAA

EDSB 081150Z 22006KT 190V250 9999 FEW008 OVC027 03/00 Q1010


Station Type Date Time Source
EDSB Decoded METAR 2022/12/08 11:50 UTC NOAA

Karlsruhe, Baden Wurttemberg, Germany (EDSB) 48-46-43N 008-04-47E
Dec 08, 2022 - 06:50 AM EST / 2022.12.08 1150 UTC
Wind: from the SW (220 degrees) at 7 MPH (6 KT) (direction variable):0
Visibility: greater than 7 mile(s):0
Sky conditions: overcast
Temperature: 37 F (3 C)
Dew Point: 32 F (0 C)
Relative Humidity: 80%
Pressure (altimeter): 29.83 in. Hg (1010 hPa)
ob: EDSB 081150Z 22006KT 190V250 9999 FEW008 OVC027 03/00 Q1010
cycle: 12

Station Type Date Time Source
EDSB TAF 2022/12/08 12:28 UTC NOAA

TAF EDSB 081100Z 0812/0912 23005KT 9999 BKN035
BECMG 0814/0817 VRB03KT
TEMPO 0821/0908 0500 FZFG BKN001
BECMG 0823/0902 03006KT
TEMPO 0908/0912 3000 BR BKN004

Example: see airport list